Home > Products > Valid Products > MTR

000
SAUS44 KMAF 031456
MTRGDP
METAR KGDP 031451Z AUTO 02004KT 9SM CLR 24/10 A3017 RMK AO2 SLP129
T02390100 53003





000
SAUS44 KMAF 031454
MTR6R6
METAR K6R6 031453Z AUTO VRB05KT 27/20 A3000 RMK AO1 SLP120 T02670200
51012





000
SAUS44 KMAF 031356
MTRGDP
METAR KGDP 031351Z AUTO 27005KT 9SM CLR 21/10 A3017 RMK AO2 SLP132
T02110100





000
SAUS44 KMAF 031356
MTRGDP
METAR KGDP 031351Z AUTO 27005KT 9SM CLR 21/10 A3017 RMK AO2 SLP132
T02110100





000
SAUS44 KMAF 031354
MTR6R6
METAR K6R6 031353Z AUTO VRB03KT 24/19 A2999 RMK AO1 SLP119 T02440189





000
SAUS44 KMAF 031354
MTR6R6
METAR K6R6 031353Z AUTO VRB03KT 24/19 A2999 RMK AO1 SLP119 T02440189





000
SAUS44 KMAF 031256
MTRGDP
METAR KGDP 031251Z AUTO 23007KT 9SM CLR 20/10 A3016 RMK AO2 SLP126
T02000100





000
SAUS44 KMAF 031256
MTRGDP
METAR KGDP 031251Z AUTO 23007KT 9SM CLR 20/10 A3016 RMK AO2 SLP126
T02000100





000
SAUS44 KMAF 031254
MTR6R6
METAR K6R6 031253Z AUTO 31007KT 22/17 A2998 RMK AO1 SLP114 T02170172





000
SAUS44 KMAF 031254
MTR6R6
METAR K6R6 031253Z AUTO 31007KT 22/17 A2998 RMK AO1 SLP114 T02170172





000
SAUS44 KMAF 031156
MTRGDP
METAR KGDP 031151Z AUTO 23007KT 10SM CLR 20/10 A3016 RMK AO2 SLP124
60000 T02000100 10239 20200 53002





000
SAUS44 KMAF 031154
MTR6R6
METAR K6R6 031153Z AUTO 31007KT 21/17 A2996 RMK AO1 SLP108 T02110167
10244 20211 53004





000
SAUS44 KMAF 031154
MTR6R6
METAR K6R6 031153Z AUTO 31007KT 21/17 A2996 RMK AO1 SLP108 T02110167
10244 20211 53004





000
SAUS44 KMAF 031056
MTRGDP
METAR KGDP 031051Z AUTO 21006KT 10SM CLR 22/09 A3015 RMK AO2 SLP117
T02170089





000
SAUS44 KMAF 031054
MTR6R6
METAR K6R6 031053Z AUTO 30008KT 21/16 A2995 RMK AO1 SLP103 T02110156





000
SAUS44 KMAF 030956
MTRGDP
METAR KGDP 030951Z AUTO 26007KT 10SM CLR 22/09 A3015 RMK AO2 SLP117
T02220094





000
SAUS44 KMAF 030954
MTR6R6
METAR K6R6 030953Z AUTO VRB04KT 22/16 A2995 RMK AO1 SLP101 T02220156





000
SAUS44 KMAF 030855
MTRGDP
METAR KGDP 030851Z AUTO 06003KT 10SM CLR 22/09 A3016 RMK AO2 SLP113
60000 T02220094 58002





000
SAUS44 KMAF 030855
MTRGDP
METAR KGDP 030851Z AUTO 06003KT 10SM CLR 22/09 A3016 RMK AO2 SLP113
60000 T02220094 58002





000
SAUS44 KMAF 030854
MTR6R6
METAR K6R6 030853Z AUTO 33003KT 23/16 A2995 RMK AO1 SLP101 T02330156
58010





000
SAUS44 KMAF 030756
MTRGDP
METAR KGDP 030751Z AUTO 23005KT 10SM CLR 24/08 A3017 RMK AO2 SLP117
T02390078





000
SAUS44 KMAF 030754
MTR6R6
METAR K6R6 030753Z AUTO VRB04KT 23/16 A2996 RMK AO1 SLP106 T02330156





000
SAUS44 KMAF 030754
MTR6R6
METAR K6R6 030753Z AUTO VRB04KT 23/16 A2996 RMK AO1 SLP106 T02330156





000
SAUS44 KMAF 030657 COR
MTRGDP
METAR KGDP 030651Z AUTO 34007KT 10SM BKN110 22/10 A3019 RMK AO2 PK
WND 05027/0616 RAB05E15 SLP131 P0000 T02220100 403220206





000
SAUS44 KMAF 030657 COR
MTRGDP
METAR KGDP 030651Z AUTO 34007KT 10SM BKN110 22/10 A3019 RMK AO2 PK
WND 05027/0616 RAB05E15 SLP131 P0000 T02220100 403220206





000
SAUS44 KMAF 030656 COR
MTRGDP
METAR KGDP 030651Z AUTO 34007KT 10SM BKN110 22/10 A3019 RMK AO2 PK
WND 05027/0616 RAB05E15 SLP131 P0000 T02220100 403220206





000
SAUS44 KMAF 030656
MTRGDP
METAR KGDP 030651Z AUTO 34007KT 10SM BKN110 22/10 A3019 RMK AO2 PK
WND 05027/0616 RAB05E15 SLP131 P0000 T02220100 403220206





000
SAUS44 KMAF 030656
MTRGDP
METAR KGDP 030651Z AUTO 34007KT 10SM BKN110 22/10 A3019 RMK AO2 PK
WND 05027/0616 RAB05E15 SLP131 P0000 T02220100 403220206





000
SAUS44 KMAF 030656 COR
MTRGDP
METAR KGDP 030651Z AUTO 34007KT 10SM BKN110 22/10 A3019 RMK AO2 PK
WND 05027/0616 RAB05E15 SLP131 P0000 T02220100 403220206





000
SAUS44 KMAF 030655
MTR6R6
METAR K6R6 030653Z AUTO 31005KT 24/15 A2997 RMK AO1 SLP109 T02390150





000
SAUS44 KMAF 030655
MTR6R6
METAR K6R6 030653Z AUTO 31005KT 24/15 A2997 RMK AO1 SLP109 T02390150





000
SAUS44 KMAF 030557 COR
MTRGDP
METAR KGDP 030551Z AUTO 05021KT 10SM FEW110 22/09 A3016 RMK AO2 PK
WND 06030/0458 SLP120 60000 T02220094 10294 20222 58001





000
SAUS44 KMAF 030557 COR
MTRGDP
METAR KGDP 030551Z AUTO 05021KT 10SM FEW110 22/09 A3016 RMK AO2 PK
WND 06030/0458 SLP120 60000 T02220094 10294 20222 58001





000
SAUS44 KMAF 030556 COR
MTRGDP
METAR KGDP 030551Z AUTO 05021KT 10SM FEW110 22/09 A3016 RMK AO2 PK
WND 06030/0458 SLP120 60000 T02220094 10294 20222 58001





000
SAUS44 KMAF 030556 COR
MTRGDP
METAR KGDP 030551Z AUTO 05021KT 10SM FEW110 22/09 A3016 RMK AO2 PK
WND 06030/0458 SLP120 60000 T02220094 10294 20222 58001





000
SAUS44 KMAF 030556
MTRGDP
METAR KGDP 030551Z AUTO 05021KT 10SM FEW110 22/09 A3016 RMK AO2 PK
WND 06030/0458 SLP120 60000 T02220094 10294 20222 58001





000
SAUS44 KMAF 030556
MTRGDP
METAR KGDP 030551Z AUTO 05021KT 10SM FEW110 22/09 A3016 RMK AO2 PK
WND 06030/0458 SLP120 60000 T02220094 10294 20222 58001





000
SAUS44 KMAF 030554
MTR6R6
METAR K6R6 030553Z AUTO 30004KT 24/15 A2998 RMK AO1 SLP113 T02390150
10333 20239 403560233 50004





000
SAUS44 KMAF 030554
MTR6R6
METAR K6R6 030553Z AUTO 30004KT 24/15 A2998 RMK AO1 SLP113 T02390150
10333 20239 403560233 50004





000
SAUS44 KMAF 030456
MTRGDP
METAR KGDP 030451Z AUTO 06022KT 10SM CLR 23/09 A3017 RMK AO2 PK WND
06027/0446 SLP118 T02330089





000
SAUS44 KMAF 030454
MTR6R6
METAR K6R6 030453Z AUTO 30004KT 25/14 A2999 RMK AO1 SLP118 T02500144





000
SAUS44 KMAF 030356
MTRGDP
METAR KGDP 030351Z AUTO 05019KT 10SM CLR 24/08 A3018 RMK AO2 SLP126
T02390083





000
SAUS44 KMAF 030354
MTR6R6
METAR K6R6 030353Z AUTO 28005KT 26/15 A2999 RMK AO1 SLP118 T02610150





000
SAUS44 KMAF 030354
MTR6R6
METAR K6R6 030353Z AUTO 28005KT 26/15 A2999 RMK AO1 SLP118 T02610150





000
SAUS44 KMAF 030255
MTRGDP
METAR KGDP 030251Z AUTO 07017KT 10SM CLR 24/08 A3017 RMK AO2 SLP126
60000 T02440083 53009





000
SAUS44 KMAF 030255
MTRGDP
METAR KGDP 030251Z AUTO 07017KT 10SM CLR 24/08 A3017 RMK AO2 SLP126
60000 T02440083 53009





000
SAUS44 KMAF 030254
MTR6R6
METAR K6R6 030253Z AUTO VRB04KT 28/15 A2997 RMK AO1 SLP110 T02830150
53010





000
SAUS44 KMAF 030254
MTR6R6
METAR K6R6 030253Z AUTO VRB04KT 28/15 A2997 RMK AO1 SLP110 T02830150
53010





000
SAUS44 KMAF 030156
MTRGDP
METAR KGDP 030151Z AUTO 07017KT 10SM CLR 26/08 A3014 RMK AO2 RAE0059
SLP117 P0000 T02610078





000
SAUS44 KMAF 030156
MTRGDP
METAR KGDP 030151Z AUTO 07017KT 10SM CLR 26/08 A3014 RMK AO2 RAE0059
SLP117 P0000 T02610078





000
SAUS44 KMAF 030154
MTR6R6
METAR K6R6 030153Z AUTO VRB03KT 30/15 A2994 RMK AO1 SLP102 T03000150





000
SAUS44 KMAF 030056
MTRGDP
METAR KGDP 030051Z AUTO 10016KT 10SM -RA CLR 28/06 A3014 RMK AO2
RAE08B35 SLP111 P0000 T02780056





000
SAUS44 KMAF 030054
MTR6R6
METAR K6R6 030053Z AUTO VRB05KT 32/15 A2993 RMK AO1 SLP096 T03220150





000
SAUS44 KMAF 022357 COR
MTRGDP
METAR KGDP 022351Z AUTO 11015KT 10SM -RA CLR 29/04 A3013 RMK AO2
RAB25 SLP107 P0000 60000 T02940044 10322 20289 56013





000
SAUS44 KMAF 022357 COR
MTRGDP
METAR KGDP 022351Z AUTO 11015KT 10SM -RA CLR 29/04 A3013 RMK AO2
RAB25 SLP107 P0000 60000 T02940044 10322 20289 56013





000
SAUS44 KMAF 022356 COR
MTRGDP
METAR KGDP 022351Z AUTO 11015KT 10SM -RA CLR 29/04 A3013 RMK AO2
RAB25 SLP107 P0000 60000 T02940044 10322 20289 56013





000
SAUS44 KMAF 022356 COR
MTRGDP
METAR KGDP 022351Z AUTO 11015KT 10SM -RA CLR 29/04 A3013 RMK AO2
RAB25 SLP107 P0000 60000 T02940044 10322 20289 56013





000
SAUS44 KMAF 022355
MTRGDP
METAR KGDP 022351Z AUTO 11015KT 10SM -RA CLR 29/04 A3013 RMK AO2
RAB25 SLP107 P0000 60000 T02940044 10322 20289 56013





000
SAUS44 KMAF 022355
MTRGDP
METAR KGDP 022351Z AUTO 11015KT 10SM -RA CLR 29/04 A3013 RMK AO2
RAB25 SLP107 P0000 60000 T02940044 10322 20289 56013





000
SAUS44 KMAF 022354
MTR6R6
METAR K6R6 022353Z AUTO 12006KT 33/15 A2993 RMK AO1 SLP097 T03330150
10356 20317 56012





000
SAUS44 KMAF 022354
MTR6R6
METAR K6R6 022353Z AUTO 12006KT 33/15 A2993 RMK AO1 SLP097 T03330150
10356 20317 56012





000
SAUS44 KMAF 022202
MTR6R6
METAR K6R6 022153Z AUTO VRB06KT 34/14 A2995 RMK AO1 SLP101 T03440144





000
SAUS44 KMAF 022104
MTR6R6
METAR K6R6 022053Z AUTO 16009G15KT 35/16 A2997 RMK AO1 SLP108
T03500161 56022





000
SAUS44 KMAF 022104
MTR6R6
METAR K6R6 022053Z AUTO 16009G15KT 35/16 A2997 RMK AO1 SLP108
T03500161 56022





000
SAUS44 KMAF 022103 COR
MTRGDP
METAR KGDP 022051Z AUTO 09009KT 9SM CLR 32/08 A3018 RMK AO2 SLP125
T03170083 58016





000
SAUS44 KMAF 022103 COR
MTRGDP
METAR KGDP 022051Z AUTO 09009KT 9SM CLR 32/08 A3018 RMK AO2 SLP125
T03170083 58016





000
SAUS44 KMAF 021901
MTR6R6
METAR K6R6 021853Z AUTO 15008G16KT 100V190 33/17 A3002 RMK AO1 PK
WND 19029/1800 SLP126 T03330172





000
SAUS44 KMAF 021901
MTR6R6
METAR K6R6 021853Z AUTO 15008G16KT 100V190 33/17 A3002 RMK AO1 PK
WND 19029/1800 SLP126 T03330172





000
SAUS44 KMAF 021803
MTR6R6
METAR K6R6 021753Z AUTO VRB06G15KT 32/19 A3004 RMK AO1 SLP135
T03170194 10317 20233 58013





000
SAUS44 KMAF 021803
MTR6R6
METAR K6R6 021753Z AUTO VRB06G15KT 32/19 A3004 RMK AO1 SLP135
T03170194 10317 20233 58013





000
SAUS44 KMAF 021455
MTRGDP
METAR KGDP 021451Z AUTO 07009KT 9SM CLR 26/11 A3024 RMK AO2 SLP151
T02560106 51007





000
SAUS44 KMAF 021454
MTR6R6
METAR K6R6 021453Z AUTO VRB05KT 24/20 A3008 RMK AO1 SLP150 T02440200
51014





000
SAUS44 KMAF 021454
MTR6R6
METAR K6R6 021453Z AUTO VRB05KT 24/20 A3008 RMK AO1 SLP150 T02440200
51014





000
SAUS44 KMAF 021356
MTRGDP
METAR KGDP 021351Z AUTO 05004KT 9SM CLR 24/11 A3024 RMK AO2 SLP147
T02390106





000
SAUS44 KMAF 021354
MTR6R6
METAR K6R6 021353Z AUTO 24/20 A3008 RMK AO1 SLP148 T02390200





000
SAUS44 KMAF 021255
MTRGDP
METAR KGDP 021251Z AUTO 22006KT 9SM CLR 24/07 A3022 RMK AO2 SLP141
T02390072





000
SAUS44 KMAF 021254
MTR6R6
METAR K6R6 021253Z AUTO 00000KT 23/20 A3006 RMK AO1 SLP140 T02330200





000
SAUS44 KMAF 021254
MTR6R6
METAR K6R6 021253Z AUTO 00000KT 23/20 A3006 RMK AO1 SLP140 T02330200





000
SAUS44 KMAF 021155
MTRGDP
METAR KGDP 021151Z AUTO 17004KT 10SM CLR 23/09 A3022 RMK AO2 SLP136
60000 T02330089 10239 20206 51002





000
SAUS44 KMAF 021155
MTRGDP
METAR KGDP 021151Z AUTO 17004KT 10SM CLR 23/09 A3022 RMK AO2 SLP136
60000 T02330089 10239 20206 51002





000
SAUS44 KMAF 021154
MTR6R6
METAR K6R6 021153Z AUTO 00000KT 23/20 A3004 RMK AO1 SLP134 T02330200
10261 20233 51006





000
SAUS44 KMAF 021154
MTR6R6
METAR K6R6 021153Z AUTO 00000KT 23/20 A3004 RMK AO1 SLP134 T02330200
10261 20233 51006





000
SAUS44 KMAF 021056
MTRGDP
METAR KGDP 021051Z AUTO 12003KT 10SM CLR 22/09 A3021 RMK AO2 SLP134
T02220094





000
SAUS44 KMAF 021054
MTR6R6
METAR K6R6 021053Z AUTO 00000KT 23/19 A3004 RMK AO1 SLP132 T02330194





000
SAUS44 KMAF 020955
MTRGDP
METAR KGDP 020951Z AUTO 09005KT 10SM SCT110 22/10 A3022 RMK AO2
SLP136 T02170100





000
SAUS44 KMAF 020954
MTR6R6
METAR K6R6 020953Z AUTO 17007KT 24/19 A3004 RMK AO1 SLP130 T02390194





000
SAUS44 KMAF 020954
MTR6R6
METAR K6R6 020953Z AUTO 17007KT 24/19 A3004 RMK AO1 SLP130 T02390194





000
SAUS44 KMAF 020855
MTRGDP
METAR KGDP 020851Z AUTO 05016KT 10SM CLR 21/10 A3021 RMK AO2 RAE0756
SLP136 P0000 60000 T02060100 51002





000
SAUS44 KMAF 020855
MTRGDP
METAR KGDP 020851Z AUTO 05016KT 10SM CLR 21/10 A3021 RMK AO2 RAE0756
SLP136 P0000 60000 T02060100 51002





000
SAUS44 KMAF 020854
MTR6R6
METAR K6R6 020853Z AUTO 10006G15KT 24/19 A3002 RMK AO1 SLP126
T02440194 58001





000
SAUS44 KMAF 020854
MTR6R6
METAR K6R6 020853Z AUTO 10006G15KT 24/19 A3002 RMK AO1 SLP126
T02440194 58001





000
SAUS44 KMAF 020755
MTRGDP
METAR KGDP 020751Z AUTO 04021KT 10SM -RA CLR 22/10 A3021 RMK AO2 PK
WND 04027/0703 RAB08 SLP136 P0000 T02170100





000
SAUS44 KMAF 020755
MTRGDP
METAR KGDP 020751Z AUTO 04021KT 10SM -RA CLR 22/10 A3021 RMK AO2 PK
WND 04027/0703 RAB08 SLP136 P0000 T02170100





000
SAUS44 KMAF 020754
MTR6R6
METAR K6R6 020753Z AUTO 11005KT 25/17 A3003 RMK AO1 SLP128 T02500172





000
SAUS44 KMAF 020754
MTR6R6
METAR K6R6 020753Z AUTO 11005KT 25/17 A3003 RMK AO1 SLP128 T02500172





000
SAUS44 KMAF 020655
MTRGDP
METAR KGDP 020651Z AUTO 05023KT 10SM BKN100 22/10 A3021 RMK AO2 PK
WND 05030/0600 RAE34 SLP137 P0000 T02220100 403330211





000
SAUS44 KMAF 020655
MTRGDP
METAR KGDP 020651Z AUTO 05023KT 10SM BKN100 22/10 A3021 RMK AO2 PK
WND 05030/0600 RAE34 SLP137 P0000 T02220100 403330211





000
SAUS44 KMAF 020654
MTR6R6
METAR K6R6 020653Z AUTO 30004KT 24/13 A3003 RMK AO1 SLP130 T02440133





000
SAUS44 KMAF 020654
MTR6R6
METAR K6R6 020653Z AUTO 30004KT 24/13 A3003 RMK AO1 SLP130 T02440133





000
SAUS44 KMAF 020557 COR
MTRGDP
METAR KGDP 020551Z AUTO 05026KT 10SM -RA SCT110 23/09 A3020 RMK AO2
PK WND 05033/0526 RAB22 SLP135 P0000 60000 T02280094 10300 20228
51004





000
SAUS44 KMAF 020557 COR
MTRGDP
METAR KGDP 020551Z AUTO 05026KT 10SM -RA SCT110 23/09 A3020 RMK AO2
PK WND 05033/0526 RAB22 SLP135 P0000 60000 T02280094 10300 20228
51004





000
SAUS44 KMAF 020556 COR
MTRGDP
METAR KGDP 020551Z AUTO 05026KT 10SM -RA SCT110 23/09 A3020 RMK AO2
PK WND 05033/0526 RAB22 SLP135 P0000 60000 T02280094 10300 20228
51004





000
SAUS44 KMAF 020556 COR
MTRGDP
METAR KGDP 020551Z AUTO 05026KT 10SM -RA SCT110 23/09 A3020 RMK AO2
PK WND 05033/0526 RAB22 SLP135 P0000 60000 T02280094 10300 20228
51004





000
SAUS44 KMAF 020555
MTRGDP
METAR KGDP 020551Z AUTO 05026KT 10SM -RA SCT110 23/09 A3020 RMK AO2
PK WND 05033/0526 RAB22 SLP135 P0000 60000 T02280094 10300 20228
51004





000
SAUS44 KMAF 020555
MTRGDP
METAR KGDP 020551Z AUTO 05026KT 10SM -RA SCT110 23/09 A3020 RMK AO2
PK WND 05033/0526 RAB22 SLP135 P0000 60000 T02280094 10300 20228
51004





000
SAUS44 KMAF 020554
MTR6R6
METAR K6R6 020553Z AUTO 32004KT 25/13 A3003 RMK AO1 SLP131 T02500133
10344 20250 403610200 50007





000
SAUS44 KMAF 020554
MTR6R6
METAR K6R6 020553Z AUTO 32004KT 25/13 A3003 RMK AO1 SLP131 T02500133
10344 20250 403610200 50007





000
SAUS44 KMAF 020456
MTRGDP
METAR KGDP 020451Z AUTO 05027G33KT 10SM BKN110 23/09 A3020 RMK AO2
PK WND 05033/0450 SLP135 T02330089





000
SAUS44 KMAF 020454
MTR6R6
METAR K6R6 020453Z AUTO VRB03KT 27/14 A3003 RMK AO1 SLP131 T02720139





000
SAUS44 KMAF 020355
MTRGDP
METAR KGDP 020351Z AUTO 06020KT 10SM OVC110 24/08 A3021 RMK AO2 PK
WND 05026/0349 SLP137 T02390083





000
SAUS44 KMAF 020354
MTR6R6
METAR K6R6 020353Z AUTO 17006KT 28/13 A3003 RMK AO1 SLP130 T02830133





000
SAUS44 KMAF 020255
MTR6R6
METAR K6R6 020253Z AUTO 16006KT 29/13 A3001 RMK AO1 SLP123 T02940128
53020





000
SAUS44 KMAF 020255
MTRGDP
METAR KGDP 020251Z AUTO 05020KT 10SM FEW110 24/08 A3019 RMK AO2
SLP134 T02440083 53012





000
SAUS44 KMAF 020255
MTRGDP
METAR KGDP 020251Z AUTO 05020KT 10SM FEW110 24/08 A3019 RMK AO2
SLP134 T02440083 53012





000
SAUS44 KMAF 020255
MTR6R6
METAR K6R6 020253Z AUTO 16006KT 29/13 A3001 RMK AO1 SLP123 T02940128
53020





000
SAUS44 KMAF 020155
MTRGDP
METAR KGDP 020151Z AUTO 08019KT 10SM CLR 27/08 A3016 RMK AO2 PK WND
08027/0142 SLP123 T02670083





000
SAUS44 KMAF 020154
MTR6R6
METAR K6R6 020153Z AUTO VRB04KT 31/12 A2997 RMK AO1 SLP112 T03060117





000
SAUS44 KMAF 020154
MTR6R6
METAR K6R6 020153Z AUTO VRB04KT 31/12 A2997 RMK AO1 SLP112 T03060117





000
SAUS44 KMAF 020055
MTRGDP
METAR KGDP 020051Z AUTO 08018KT 9SM FEW100 28/08 A3015 RMK AO2
SLP115 T02830078





000
SAUS44 KMAF 020054
MTR6R6
METAR K6R6 020053Z AUTO VRB03KT 33/13 A2995 RMK AO1 SLP104 T03280128





000
SAUS44 KMAF 012355
MTRGDP
METAR KGDP 012351Z AUTO 07013KT 9SM BKN100 OVC120 30/07 A3015 RMK
AO2 SLP116 T03000067 10333 20283 56007





000
SAUS44 KMAF 012354
MTR6R6
METAR K6R6 012353Z AUTO 14007KT 100V170 34/13 A2994 RMK AO1 SLP101
T03440133 10361 20300 56006





000
SAUS44 KMAF 012255
MTRGDP
METAR KGDP 012251Z AUTO VRB06G18KT 9SM BKN100 32/07 A3015 RMK AO2
SLP112 T03220072





000
SAUS44 KMAF 012254
MTR6R6
METAR K6R6 012253Z AUTO VRB04KT 35/13 A2994 RMK AO1 SLP100 T03500133





000
SAUS44 KMAF 012155
MTRGDP
METAR KGDP 012151Z AUTO 9SM CLR 32/07 A3016 RMK AO2 SLP114 T03170067





000
SAUS44 KMAF 012154
MTR6R6
METAR K6R6 012153Z AUTO 11007G18KT 080V140 36/13 A2995 RMK AO1
SLP101 T03560133





000
SAUS44 KMAF 012055
MTRGDP
METAR KGDP 012051Z AUTO 13010G14KT 9SM CLR 31/08 A3017 RMK AO2
SLP119 T03110078 58013





000
SAUS44 KMAF 012054
MTR6R6
METAR K6R6 012053Z AUTO VRB05G15KT 35/14 A2996 RMK AO1 SLP105
T03500144 58025





000
SAUS44 KMAF 011955
MTRGDP
METAR KGDP 011951Z AUTO 08006KT 8SM CLR 31/07 A3019 RMK AO2 SLP126
T03060072





000
SAUS44 KMAF 011954
MTR6R6
METAR K6R6 011953Z AUTO 17008KT 34/17 A2999 RMK AO1 SLP114 T03390167





000
SAUS44 KMAF 011954
MTR6R6
METAR K6R6 011953Z AUTO 17008KT 34/17 A2999 RMK AO1 SLP114 T03390167





000
SAUS44 KMAF 011855
MTRGDP
METAR KGDP 011851Z AUTO 08007G17KT 9SM CLR 29/07 A3021 RMK AO2
SLP136 T02940072





000
SAUS44 KMAF 011855
MTRGDP
METAR KGDP 011851Z AUTO 08007G17KT 9SM CLR 29/07 A3021 RMK AO2
SLP136 T02940072





000
SAUS44 KMAF 011854
MTR6R6
METAR K6R6 011853Z AUTO VRB06KT 32/18 A3002 RMK AO1 SLP125 T03220183





000
SAUS44 KMAF 011755
MTRGDP
METAR KGDP 011751Z AUTO 07009KT 9SM CLR 29/08 A3022 RMK AO2 SLP139
T02940083 10294 20217 50006





000
SAUS44 KMAF 011754
MTR6R6
METAR K6R6 011753Z AUTO 16009G22KT 130V240 29/19 A3004 RMK AO1
SLP134 T02940189 10300 20200 58004





000
SAUS44 KMAF 011655
MTRGDP
METAR KGDP 011651Z AUTO 08008KT 9SM CLR 28/09 A3022 RMK AO2 SLP142
T02780089





000
SAUS44 KMAF 011654
MTR6R6
METAR K6R6 011653Z AUTO VRB06KT 28/19 A3006 RMK AO1 SLP142 T02780189





000
SAUS44 KMAF 011555
MTRGDP
METAR KGDP 011551Z AUTO 07007KT 9SM CLR 27/08 A3022 RMK AO2 SLP140
T02670083





000
SAUS44 KMAF 011554
MTR6R6
METAR K6R6 011553Z AUTO VRB06KT 26/19 A3007 RMK AO1 SLP144 T02560189





000
SAUS44 KMAF 011455
MTRGDP
METAR KGDP 011451Z AUTO 00000KT 8SM CLR 25/06 A3020 RMK AO2 SLP136
T02500056 52012





000
SAUS44 KMAF 011455
MTRGDP
METAR KGDP 011451Z AUTO 00000KT 8SM CLR 25/06 A3020 RMK AO2 SLP136
T02500056 52012





000
SAUS44 KMAF 011454
MTR6R6
METAR K6R6 011453Z AUTO 23/18 A3005 RMK AO1 SLP140 T02330183 51014





000
SAUS44 KMAF 011355
MTRGDP
METAR KGDP 011351Z AUTO 22006KT 8SM CLR 23/05 A3018 RMK AO2 SLP132
T02280050





000
SAUS44 KMAF 011354
MTR6R6
METAR K6R6 011353Z AUTO 17007KT 22/18 A3004 RMK AO1 SLP137 T02220178





000
SAUS44 KMAF 011255
MTRGDP
METAR KGDP 011251Z AUTO 23006KT 8SM CLR 23/04 A3017 RMK AO2 SLP125
T02280044





000
SAUS44 KMAF 011255
MTRGDP
METAR KGDP 011251Z AUTO 23006KT 8SM CLR 23/04 A3017 RMK AO2 SLP125
T02280044





000
SAUS44 KMAF 011254
MTR6R6
METAR K6R6 011253Z AUTO 18005KT 21/17 A3003 RMK AO1 SLP133 T02060172





000
SAUS44 KMAF 011254
MTR6R6
METAR K6R6 011253Z AUTO 18005KT 21/17 A3003 RMK AO1 SLP133 T02060172





000
SAUS44 KMAF 011155
MTRGDP
METAR KGDP 011151Z AUTO 24008KT 9SM CLR 22/04 A3015 RMK AO2 SLP113
T02220044 10250 20211 57001





000
SAUS44 KMAF 011155
MTRGDP
METAR KGDP 011151Z AUTO 24008KT 9SM CLR 22/04 A3015 RMK AO2 SLP113
T02220044 10250 20211 57001





000
SAUS44 KMAF 011154
MTR6R6
METAR K6R6 011153Z AUTO 31005KT 21/17 A3001 RMK AO1 SLP123 T02060167
10283 20206 53006





000
SAUS44 KMAF 011154
MTR6R6
METAR K6R6 011153Z AUTO 31005KT 21/17 A3001 RMK AO1 SLP123 T02060167
10283 20206 53006





000
SAUS44 KMAF 011055
MTRGDP
METAR KGDP 011051Z AUTO 24008KT 9SM CLR 22/04 A3015 RMK AO2 SLP113
T02220044





000
SAUS44 KMAF 011055
MTRGDP
METAR KGDP 011051Z AUTO 24008KT 9SM CLR 22/04 A3015 RMK AO2 SLP113
T02220044





000
SAUS44 KMAF 011054
MTR6R6
METAR K6R6 011053Z AUTO 00000KT 22/17 A3000 RMK AO1 SLP120 T02170167





000
SAUS44 KMAF 011054
MTR6R6
METAR K6R6 011053Z AUTO 00000KT 22/17 A3000 RMK AO1 SLP120 T02170167





000
SAUS44 KMAF 010955
MTR6R6
METAR K6R6 010953Z AUTO VRB04KT 23/17 A2999 RMK AO1 SLP117 T02280167





000
SAUS44 KMAF 010955
MTR6R6
METAR K6R6 010953Z AUTO VRB04KT 23/17 A2999 RMK AO1 SLP117 T02280167





000
SAUS44 KMAF 010955
MTRGDP
METAR KGDP 010951Z AUTO 27007KT 9SM CLR 23/04 A3016 RMK AO2 SLP114
T02280039





000
SAUS44 KMAF 010855
MTRGDP
METAR KGDP 010851Z AUTO 00000KT 10SM CLR 24/05 A3016 RMK AO2 SLP110
T02440050 58007





000
SAUS44 KMAF 010855
MTRGDP
METAR KGDP 010851Z AUTO 00000KT 10SM CLR 24/05 A3016 RMK AO2 SLP110
T02440050 58007





000
SAUS44 KMAF 010854
MTR6R6
METAR K6R6 010853Z AUTO 09006KT 24/17 A2999 RMK AO1 SLP114 T02390172
57001





000
SAUS44 KMAF 010854
MTR6R6
METAR K6R6 010853Z AUTO 09006KT 24/17 A2999 RMK AO1 SLP114 T02390172
57001





000
SAUS44 KMAF 010755
MTRGDP
METAR KGDP 010751Z AUTO 05006KT 10SM CLR 24/06 A3017 RMK AO2 SLP118
T02390056





000
SAUS44 KMAF 010755
MTRGDP
METAR KGDP 010751Z AUTO 05006KT 10SM CLR 24/06 A3017 RMK AO2 SLP118
T02390056





000
SAUS44 KMAF 010754
MTR6R6
METAR K6R6 010753Z AUTO 08009G15KT 26/17 A2999 RMK AO1 SLP113
T02560172





000
SAUS44 KMAF 010754
MTR6R6
METAR K6R6 010753Z AUTO 08009G15KT 26/17 A2999 RMK AO1 SLP113
T02560172





000
SAUS44 KMAF 010655
MTRGDP
METAR KGDP 010651Z AUTO 04015KT 9SM CLR 23/05 A3019 RMK AO2 SLP125
T02280050 403330189





000
SAUS44 KMAF 010655
MTRGDP
METAR KGDP 010651Z AUTO 04015KT 9SM CLR 23/05 A3019 RMK AO2 SLP125
T02280050 403330189





000
SAUS44 KMAF 010655
MTR6R6
METAR K6R6 010653Z AUTO 11004KT 27/17 A2999 RMK AO1 SLP114 T02670172





000
SAUS44 KMAF 010655
MTR6R6
METAR K6R6 010653Z AUTO 11004KT 27/17 A2999 RMK AO1 SLP114 T02670172





000
SAUS44 KMAF 010555
MTRGDP
METAR KGDP 010551Z AUTO 05017KT 9SM CLR 23/04 A3018 RMK AO2 SLP128
T02280044 10311 20228 51008





000
SAUS44 KMAF 010555
MTRGDP
METAR KGDP 010551Z AUTO 05017KT 9SM CLR 23/04 A3018 RMK AO2 SLP128
T02280044 10311 20228 51008





000
SAUS44 KMAF 010554
MTR6R6
METAR K6R6 010553Z AUTO 15008KT 28/14 A2999 RMK AO1 SLP114 T02830144
10356 20283 403670200 51010





000
SAUS44 KMAF 010554
MTR6R6
METAR K6R6 010553Z AUTO 15008KT 28/14 A2999 RMK AO1 SLP114 T02830144
10356 20283 403670200 51010





000
SAUS44 KMAF 010455
MTRGDP
METAR KGDP 010451Z AUTO 06019KT 9SM FEW100 23/04 A3018 RMK AO2
SLP131 T02330044





000
SAUS44 KMAF 010454
MTR6R6
METAR K6R6 010453Z AUTO 15008KT 29/14 A2999 RMK AO1 SLP114 T02940139





000
SAUS44 KMAF 010355
MTRGDP
METAR KGDP 010351Z AUTO 06018KT 9SM CLR 24/06 A3017 RMK AO2 SLP132
T02390056





000
SAUS44 KMAF 010354
MTR6R6
METAR K6R6 010353Z AUTO 15008KT 30/14 A2998 RMK AO1 SLP112 T03000139





000
SAUS44 KMAF 010255
MTRGDP
METAR KGDP 010251Z AUTO 06016KT 9SM CLR 24/07 A3016 RMK AO2 SLP128
T02440072 53008





000
SAUS44 KMAF 010254
MTR6R6
METAR K6R6 010253Z AUTO 15007KT 31/13 A2996 RMK AO1 SLP107 T03060133
53015





000
SAUS44 KMAF 010155
MTRGDP
METAR KGDP 010151Z AUTO 09012KT 10SM FEW002 26/08 A3014 RMK AO2
SLP116 T02610078





000
SAUS44 KMAF 010154
MTR6R6
METAR K6R6 010153Z AUTO 14005KT 32/14 A2993 RMK AO1 SLP097 T03170139





000
SAUS44 KMAF 010154
MTR6R6
METAR K6R6 010153Z AUTO 14005KT 32/14 A2993 RMK AO1 SLP097 T03170139





000
SAUS44 KMAF 010055
MTRGDP
METAR KGDP 010051Z AUTO 10010KT 9SM BKN100 28/08 A3013 RMK AO2
SLP115 T02830078





000
SAUS44 KMAF 010054
MTR6R6
METAR K6R6 010053Z AUTO 13007KT 33/14 A2992 RMK AO1 SLP092 T03330139





000
SAUS44 KMAF 312355
MTRGDP
METAR KGDP 312351Z AUTO 18010KT 9SM CLR 32/08 A3013 RMK AO2 SLP106
T03170083 10333 20278 56012





000
SAUS44 KMAF 312354
MTR6R6
METAR K6R6 312353Z AUTO 12008G15KT 050V160 35/13 A2991 RMK AO1
SLP090 T03500133 10367 20317 56011





000
SAUS44 KMAF 312255
MTRGDP
METAR KGDP 312251Z AUTO 18009G16KT 150V220 9SM OVC090 32/08 A3013
RMK AO2 SLP106 T03220083





000
SAUS44 KMAF 312254
MTR6R6
METAR K6R6 312253Z AUTO VRB06KT 36/13 A2992 RMK AO1 SLP091 T03560133





000
SAUS44 KMAF 312155
MTRGDP
METAR KGDP 312151Z AUTO VRB04KT 9SM BKN090 32/09 A3014 RMK AO2
SLP111 T03170089





000
SAUS44 KMAF 312155
MTRGDP
METAR KGDP 312151Z AUTO VRB04KT 9SM BKN090 32/09 A3014 RMK AO2
SLP111 T03170089





000
SAUS44 KMAF 312154
MTR6R6
METAR K6R6 312153Z AUTO 15010KT 34/14 A2993 RMK AO1 SLP096 T03440139





000
SAUS44 KMAF 312055
MTRGDP
METAR KGDP 312051Z AUTO 18011G15KT 9SM CLR 33/09 A3017 RMK AO2
SLP120 T03280089 57015





000
SAUS44 KMAF 312054
MTR6R6
METAR K6R6 312053Z AUTO 21011G20KT 36/14 A2995 RMK AO1 SLP101
T03560144 58026





000
SAUS44 KMAF 312054
MTR6R6
METAR K6R6 312053Z AUTO 21011G20KT 36/14 A2995 RMK AO1 SLP101
T03560144 58026





000
SAUS44 KMAF 311955
MTRGDP
METAR KGDP 311951Z AUTO 9SM CLR 31/09 A3019 RMK AO2 SLP130 T03110094





000
SAUS44 KMAF 311955
MTRGDP
METAR KGDP 311951Z AUTO 9SM CLR 31/09 A3019 RMK AO2 SLP130 T03110094





000
SAUS44 KMAF 311954
MTR6R6
METAR K6R6 311953Z AUTO 19009KT 36/14 A2998 RMK AO1 SLP112 T03560144





000
SAUS44 KMAF 311954
MTR6R6
METAR K6R6 311953Z AUTO 19009KT 36/14 A2998 RMK AO1 SLP112 T03560144





000
SAUS44 KMAF 311855
MTRGDP
METAR KGDP 311851Z AUTO 22010G16KT 8SM CLR 31/10 A3021 RMK AO2
SLP137 T03060100





000
SAUS44 KMAF 311855
MTRGDP
METAR KGDP 311851Z AUTO 22010G16KT 8SM CLR 31/10 A3021 RMK AO2
SLP137 T03060100





000
SAUS44 KMAF 311854
MTR6R6
METAR K6R6 311853Z AUTO 20013KT 34/16 A3000 RMK AO1 SLP120 T03390156





000
SAUS44 KMAF 311854
MTR6R6
METAR K6R6 311853Z AUTO 20013KT 34/16 A3000 RMK AO1 SLP120 T03390156





000
SAUS44 KMAF 311755
MTRGDP
METAR KGDP 311751Z AUTO 23011KT 8SM CLR 28/10 A3022 RMK AO2 SLP147
T02830100 10294 20194 50003





000
SAUS44 KMAF 311755
MTRGDP
METAR KGDP 311751Z AUTO 23011KT 8SM CLR 28/10 A3022 RMK AO2 SLP147
T02830100 10294 20194 50003





000
SAUS44 KMAF 311754
MTR6R6
METAR K6R6 311753Z AUTO 14005G15KT 32/17 A3003 RMK AO1 SLP130
T03220167 10322 20206 58005





000
SAUS44 KMAF 311754
MTR6R6
METAR K6R6 311753Z AUTO 14005G15KT 32/17 A3003 RMK AO1 SLP130
T03220167 10322 20206 58005





000
SAUS44 KMAF 311655
MTRGDP
METAR KGDP 311651Z AUTO 26011KT 8SM CLR 27/11 A3023 RMK AO2 SLP149
T02670106





000
SAUS44 KMAF 311655
MTRGDP
METAR KGDP 311651Z AUTO 26011KT 8SM CLR 27/11 A3023 RMK AO2 SLP149
T02670106





000
SAUS44 KMAF 311654
MTR6R6
METAR K6R6 311653Z AUTO 17009G16KT 140V230 30/18 A3004 RMK AO1
SLP136 T03000178





000
SAUS44 KMAF 311555
MTRGDP
METAR KGDP 311551Z AUTO 23007KT 8SM CLR 24/10 A3022 RMK AO2 SLP154
T02390100 $





000
SAUS44 KMAF 311555
MTRGDP
METAR KGDP 311551Z AUTO 23007KT 8SM CLR 24/10 A3022 RMK AO2 SLP154
T02390100 $





000
SAUS44 KMAF 311554
MTR6R6
METAR K6R6 311553Z AUTO 17010KT 28/18 A3005 RMK AO1 SLP139 T02780183





000
SAUS44 KMAF 311554
MTR6R6
METAR K6R6 311553Z AUTO 17010KT 28/18 A3005 RMK AO1 SLP139 T02780183





    US Dept of Commerce
    National Oceanic and Atmospheric Administration
    National Weather Service
    1325 East West Highway
    Silver Spring, MD 20910
    Page Author: NWS Internet Services Team
Disclaimer
Information Quality
Credits
Glossary
Privacy Policy
Freedom of Information Act (FOIA)
About Us
Career Opportunities